createdAt,value
2022-11-02T05:00:38.746Z,27.20
2022-11-02T05:03:12.306Z,27.10
2022-11-02T05:05:43.070Z,26.80
2022-11-02T05:08:12.486Z,24.80
2022-11-02T05:10:41.704Z,26.40
2022-11-02T05:13:11.993Z,26.90
2022-11-02T05:15:41.784Z,28.40
2022-11-02T05:18:16.143Z,26.60
2022-11-02T05:20:59.794Z,23.40
2022-11-02T05:23:30.542Z,25.00
2022-11-02T05:26:03.842Z,23.10
2022-11-02T05:28:34.581Z,24.20
2022-11-02T05:31:05.893Z,24.70
2022-11-02T05:33:36.680Z,25.00
2022-11-02T05:36:13.271Z,25.20
2022-11-02T05:38:44.209Z,24.80
2022-11-02T05:41:14.507Z,25.30
2022-11-02T05:43:43.939Z,25.00
2022-11-02T05:46:17.192Z,24.40
2022-11-02T05:48:46.488Z,25.20
2022-11-02T05:51:15.704Z,24.90
2022-11-02T05:53:44.758Z,26.20
2022-11-02T05:56:14.847Z,25.00
2022-11-02T05:58:43.260Z,25.80
2022-11-02T06:01:12.263Z,23.70
2022-11-02T06:03:41.372Z,26.30
2022-11-02T06:06:12.744Z,25.30
2022-11-02T06:08:41.780Z,26.40
2022-11-02T06:11:15.257Z,25.90
2022-11-02T06:13:44.700Z,29.60
2022-11-02T06:16:21.478Z,28.80
2022-11-02T06:18:52.705Z,31.00
2022-11-02T06:21:22.229Z,27.70
2022-11-02T06:23:51.100Z,27.90
2022-11-02T06:26:20.076Z,27.80
2022-11-02T06:28:49.214Z,27.40
2022-11-02T06:31:18.187Z,31.00
2022-11-02T06:33:47.334Z,28.80
2022-11-02T06:36:16.348Z,26.20
2022-11-02T06:38:46.451Z,27.90
2022-11-02T06:41:15.631Z,25.80
2022-11-02T06:43:44.658Z,24.90
2022-11-02T06:46:13.650Z,30.10
2022-11-02T06:48:42.343Z,35.50
2022-11-02T06:51:10.904Z,56.50
2022-11-02T06:53:39.255Z,53.20
2022-11-02T06:56:08.254Z,58.50
2022-11-02T06:58:37.277Z,44.30
2022-11-02T07:01:07.756Z,43.70
2022-11-02T07:03:36.973Z,44.20
2022-11-02T07:06:11.134Z,45.00
2022-11-02T07:08:43.474Z,58.10
2022-11-02T07:11:19.067Z,34.90
2022-11-02T07:13:48.158Z,32.00
2022-11-02T07:16:17.354Z,30.50
2022-11-02T07:18:46.207Z,26.00
2022-11-02T07:21:15.559Z,33.70
2022-11-02T07:23:44.509Z,63.60
2022-11-02T07:26:13.222Z,38.40
2022-11-02T07:28:42.385Z,44.50
2022-11-02T07:31:11.067Z,39.30
2022-11-02T07:33:39.553Z,33.80
2022-11-02T07:36:09.031Z,30.10
2022-11-02T07:38:38.186Z,30.50
2022-11-02T07:41:07.571Z,30.20
2022-11-02T07:43:38.594Z,28.80
2022-11-02T07:46:29.112Z,30.90
2022-11-02T07:48:58.171Z,30.00
2022-11-02T07:51:27.453Z,28.00
2022-11-02T07:53:55.784Z,33.30
2022-11-02T07:56:24.237Z,33.20
2022-11-02T07:58:53.328Z,149.20
2022-11-02T08:01:22.134Z,45.40
2022-11-02T08:03:51.856Z,30.50
2022-11-02T08:06:20.976Z,29.30
2022-11-02T08:08:50.099Z,27.70
2022-11-02T08:11:38.957Z,44.30
2022-11-02T08:14:08.548Z,34.80
2022-11-02T08:16:37.246Z,87.90
2022-11-02T08:19:05.914Z,60.40
2022-11-02T08:21:34.831Z,41.10
2022-11-02T08:24:03.157Z,32.80
2022-11-02T08:26:52.348Z,28.30
2022-11-02T08:29:41.789Z,31.00
2022-11-02T08:32:27.973Z,26.80
2022-11-02T08:35:15.334Z,26.30
2022-11-02T08:38:02.678Z,37.60
2022-11-02T08:40:50.431Z,37.30
2022-11-02T08:43:36.929Z,29.00
2022-11-02T08:46:23.942Z,27.20
2022-11-02T08:49:10.594Z,29.20
2022-11-02T08:51:57.338Z,28.60
2022-11-02T08:54:44.488Z,30.70
2022-11-02T08:57:30.853Z,28.40
2022-11-02T09:00:19.045Z,28.50
2022-11-02T09:03:09.296Z,31.50
2022-11-02T09:06:01.126Z,32.40
2022-11-02T09:08:47.551Z,42.00
2022-11-02T09:11:34.039Z,30.10
2022-11-02T09:14:19.971Z,30.80
2022-11-02T09:17:06.297Z,26.50
2022-11-02T09:19:52.087Z,24.70
2022-11-02T09:22:37.915Z,24.80
2022-11-02T09:25:24.322Z,28.20
2022-11-02T09:28:11.196Z,28.60
2022-11-02T09:30:58.307Z,25.50
2022-11-02T09:33:44.097Z,25.90
2022-11-02T09:36:30.809Z,26.30
2022-11-02T09:39:19.214Z,27.20
2022-11-02T09:42:19.166Z,25.30
2022-11-02T09:45:08.421Z,53.90
2022-11-02T09:48:22.028Z,40.40
2022-11-02T09:51:22.332Z,39.20
2022-11-02T09:54:13.259Z,43.10
2022-11-02T09:57:07.032Z,33.60
2022-11-02T09:59:53.662Z,29.40
2022-11-02T10:02:58.459Z,29.30
2022-11-02T10:05:55.400Z,27.10
2022-11-02T10:08:41.476Z,30.50
2022-11-02T10:11:41.762Z,30.60
2022-11-02T10:14:53.653Z,30.70
2022-11-02T10:17:41.916Z,25.50
2022-11-02T10:20:37.875Z,23.70
2022-11-02T10:23:48.308Z,25.50
2022-11-02T10:26:38.010Z,28.00
2022-11-02T10:29:45.763Z,25.00
2022-11-02T10:32:36.025Z,25.90
2022-11-02T10:39:00.820Z,25.80
2022-11-02T10:42:11.637Z,24.30
2022-11-02T10:45:09.405Z,20.60
2022-11-02T10:48:31.158Z,23.50
2022-11-02T10:51:18.334Z,20.30
2022-11-02T10:54:12.469Z,22.90
2022-11-02T10:56:59.312Z,19.80
2022-11-02T10:59:46.213Z,17.60
2022-11-02T11:02:32.683Z,15.50
2022-11-02T11:05:20.301Z,15.60
2022-11-02T11:08:07.693Z,14.70
2022-11-02T11:10:54.898Z,19.00
2022-11-02T11:20:40.597Z,17.50
2022-11-02T11:23:27.980Z,27.90
2022-11-02T11:26:28.933Z,25.50
2022-11-02T11:29:24.222Z,28.30
2022-11-02T11:32:18.308Z,20.20
2022-11-02T11:35:08.314Z,15.10
2022-11-02T11:38:01.703Z,17.30
2022-11-02T11:40:54.983Z,41.30
2022-11-02T11:43:42.702Z,38.30
2022-11-02T11:46:44.170Z,37.40
2022-11-02T11:49:55.025Z,27.50
2022-11-02T11:52:40.405Z,20.00
2022-11-02T11:55:29.190Z,25.50
2022-11-02T11:58:32.703Z,25.90
2022-11-02T12:01:20.329Z,28.70
2022-11-02T12:04:09.135Z,22.60
2022-11-02T12:07:05.791Z,23.00
2022-11-02T12:10:09.264Z,23.70
2022-11-02T12:13:07.824Z,24.30
2022-11-02T12:16:03.396Z,24.50
2022-11-02T12:18:50.376Z,23.50
2022-11-02T12:22:00.589Z,23.50
2022-11-02T12:25:12.201Z,21.50
2022-11-02T12:28:23.090Z,24.30
2022-11-02T12:31:51.117Z,22.40
2022-11-02T12:35:27.922Z,18.10
2022-11-02T12:38:43.766Z,22.80
2022-11-02T12:41:57.069Z,20.20
2022-11-02T12:44:43.784Z,20.90
2022-11-02T12:47:55.888Z,20.10
2022-11-02T12:50:53.180Z,20.20
2022-11-02T12:54:01.689Z,19.80
2022-11-02T12:56:56.026Z,25.20
2022-11-02T12:59:45.381Z,22.30
2022-11-02T13:02:42.225Z,30.50
2022-11-02T13:05:38.604Z,32.40
2022-11-02T13:08:41.007Z,25.20
2022-11-02T13:11:52.198Z,29.70
2022-11-02T13:14:52.207Z,28.70
2022-11-02T13:17:47.709Z,31.50
2022-11-02T13:20:50.288Z,27.60
2022-11-02T13:23:43.789Z,43.60
2022-11-02T13:26:39.426Z,53.90
2022-11-02T13:29:46.603Z,43.30
2022-11-02T13:32:39.234Z,32.60
2022-11-02T13:35:30.276Z,29.70
2022-11-02T13:38:41.618Z,24.50
2022-11-02T13:41:39.792Z,22.80
2022-11-02T13:45:02.703Z,22.90
2022-11-02T13:47:52.099Z,21.90
2022-11-02T13:50:47.279Z,21.60
2022-11-02T13:53:39.129Z,29.30
2022-11-02T13:56:30.200Z,74.80
2022-11-02T13:59:30.274Z,66.30
2022-11-02T14:02:20.887Z,48.50
2022-11-02T14:05:09.164Z,39.10
2022-11-02T14:08:02.473Z,27.80
2022-11-02T14:11:07.627Z,33.40
2022-11-02T14:13:59.212Z,35.50
2022-11-02T14:16:51.660Z,40.20
2022-11-02T14:19:44.668Z,32.60
2022-11-02T14:22:32.353Z,25.90
2022-11-02T14:25:19.120Z,39.10
2022-11-02T14:28:26.281Z,39.60
2022-11-02T14:31:18.207Z,41.30
2022-11-02T14:34:19.824Z,43.50
2022-11-02T14:37:21.414Z,45.50
2022-11-02T14:40:11.024Z,39.10
2022-11-02T14:43:17.815Z,40.10
2022-11-02T14:46:32.371Z,47.60
2022-11-02T14:52:15.823Z,70.10
2022-11-02T14:55:10.025Z,61.00
2022-11-02T15:00:59.067Z,95.70
2022-11-02T15:03:46.178Z,58.80
2022-11-02T15:06:32.392Z,66.20
2022-11-02T15:09:56.680Z,82.40
2022-11-02T15:12:44.686Z,81.50
2022-11-02T15:15:34.252Z,75.80
2022-11-02T15:18:37.451Z,69.80
2022-11-02T15:21:23.648Z,67.00
2022-11-02T15:24:17.047Z,72.20
2022-11-02T15:29:52.505Z,73.50
2022-11-02T15:32:44.704Z,70.70
2022-11-02T15:35:35.281Z,64.30
2022-11-02T15:38:33.828Z,70.50
2022-11-02T15:41:50.889Z,90.40
2022-11-02T15:44:52.727Z,71.30
2022-11-02T15:47:53.847Z,57.10
2022-11-02T15:50:59.504Z,84.50
2022-11-02T15:54:07.133Z,78.60
2022-11-02T15:56:59.927Z,69.20
2022-11-02T16:00:14.315Z,69.40
2022-11-02T16:03:06.656Z,57.80
2022-11-02T16:05:53.648Z,72.60
2022-11-02T16:08:40.355Z,85.50
2022-11-02T16:11:27.866Z,79.50
2022-11-02T16:14:18.615Z,65.70
2022-11-02T16:17:05.289Z,76.90
2022-11-02T16:20:09.696Z,93.90
2022-11-02T16:23:02.697Z,75.50
2022-11-02T16:25:52.995Z,73.50
2022-11-02T16:28:40.068Z,134.30
2022-11-02T16:31:31.797Z,105.20
2022-11-02T16:34:30.496Z,84.30
2022-11-02T16:37:19.788Z,84.50
2022-11-02T16:40:07.702Z,78.50
2022-11-02T16:42:55.198Z,73.50
2022-11-02T16:45:44.013Z,67.40
2022-11-02T16:48:33.370Z,73.50
2022-11-02T16:51:20.196Z,70.40
2022-11-02T16:54:21.201Z,84.90
2022-11-02T16:57:21.038Z,84.20
2022-11-02T17:00:19.059Z,80.30
2022-11-02T17:03:11.003Z,81.10
2022-11-02T17:06:00.098Z,122.40
2022-11-02T17:08:54.384Z,126.20
2022-11-02T17:11:44.726Z,115.60
2022-11-02T17:14:32.035Z,98.70
2022-11-02T17:17:24.277Z,169.10
2022-11-02T17:20:16.141Z,79.00
2022-11-02T17:23:08.376Z,55.20
2022-11-02T17:26:23.630Z,76.30
2022-11-02T17:29:25.591Z,116.30
2022-11-02T17:32:16.665Z,71.00
2022-11-02T17:35:05.133Z,210.60
2022-11-02T17:37:53.567Z,329.90
2022-11-02T17:40:39.514Z,61.90
2022-11-02T17:43:25.542Z,54.90
2022-11-02T17:46:11.518Z,30.60
2022-11-02T17:48:58.081Z,52.80
2022-11-02T17:51:44.330Z,38.30
2022-11-02T17:54:30.156Z,66.20
2022-11-02T17:57:16.189Z,73.40
2022-11-02T18:00:02.527Z,95.60
2022-11-02T18:02:59.347Z,80.90
2022-11-02T18:05:49.526Z,63.20
2022-11-02T18:08:57.226Z,68.90
2022-11-02T18:11:43.196Z,77.90
2022-11-02T18:14:30.203Z,53.00
2022-11-02T18:17:15.841Z,48.10
2022-11-02T18:20:02.456Z,60.30
2022-11-02T18:22:48.556Z,32.70
2022-11-02T18:25:34.931Z,28.90
2022-11-02T18:28:21.097Z,30.00
2022-11-02T18:31:08.845Z,31.90
2022-11-02T18:33:56.893Z,40.00
2022-11-02T18:36:43.665Z,26.40
2022-11-02T18:39:30.076Z,27.80
2022-11-02T18:42:16.928Z,34.60
2022-11-02T18:45:04.039Z,53.40
2022-11-02T18:47:50.861Z,74.90
2022-11-02T18:50:37.323Z,64.00
2022-11-02T18:53:24.560Z,69.90
2022-11-02T18:56:12.084Z,55.10
2022-11-02T18:58:58.741Z,47.70
2022-11-02T19:01:44.937Z,46.50
2022-11-02T19:04:31.607Z,48.80
2022-11-02T19:07:36.953Z,42.00
2022-11-02T19:10:24.720Z,36.10
2022-11-02T19:13:10.918Z,23.30
2022-11-02T19:15:57.726Z,21.40
2022-11-02T19:18:44.513Z,17.10
2022-11-02T19:21:32.074Z,19.30
2022-11-02T19:24:18.149Z,21.90
2022-11-02T19:27:04.345Z,26.60
2022-11-02T19:29:51.854Z,27.40
2022-11-02T19:32:38.215Z,29.10
2022-11-02T19:35:24.524Z,29.60
2022-11-02T19:38:13.010Z,31.10
2022-11-02T19:41:10.236Z,29.90
2022-11-02T19:43:58.093Z,35.40
2022-11-02T19:46:45.218Z,41.70
2022-11-02T19:49:31.991Z,40.30
2022-11-02T19:52:18.772Z,32.90
2022-11-02T19:55:06.066Z,27.80
2022-11-02T19:57:52.357Z,31.60
2022-11-02T20:00:39.226Z,31.20
2022-11-02T20:03:26.041Z,24.20
2022-11-02T20:06:19.290Z,24.90
2022-11-02T20:09:08.048Z,22.60
2022-11-02T20:11:55.227Z,19.70
2022-11-02T20:14:41.462Z,16.60
2022-11-02T20:17:38.103Z,19.20
2022-11-02T20:20:33.122Z,20.30
2022-11-02T20:23:20.463Z,26.40
2022-11-02T20:26:09.965Z,34.00
2022-11-02T20:28:56.629Z,38.20
2022-11-02T20:31:42.700Z,38.00
2022-11-02T20:34:29.024Z,44.50
2022-11-02T20:37:15.037Z,48.90
2022-11-02T20:40:01.257Z,50.70
2022-11-02T20:42:49.802Z,49.50
2022-11-02T20:45:36.493Z,42.10
2022-11-02T20:51:13.951Z,26.50
2022-11-02T20:54:01.253Z,21.30
2022-11-02T20:56:48.079Z,27.90
2022-11-02T20:59:34.533Z,34.10
2022-11-02T21:02:22.600Z,24.50
2022-11-02T21:05:09.270Z,18.10
2022-11-02T21:07:55.216Z,33.60
2022-11-02T21:10:41.223Z,29.90
2022-11-02T21:13:47.006Z,20.40
2022-11-02T21:16:34.603Z,17.60
2022-11-02T21:19:20.927Z,17.00
2022-11-02T21:22:07.124Z,18.50
2022-11-02T21:24:53.403Z,17.50
2022-11-02T21:27:39.630Z,18.80
2022-11-02T21:30:26.808Z,17.10
2022-11-02T21:33:12.412Z,17.70
2022-11-02T21:35:59.619Z,16.50
2022-11-02T21:38:47.490Z,18.00
2022-11-02T21:41:38.846Z,18.90
2022-11-02T21:44:25.274Z,18.40
2022-11-02T21:47:12.848Z,17.30
2022-11-02T21:50:02.872Z,16.10
2022-11-02T21:52:49.130Z,14.70
2022-11-02T21:55:35.343Z,15.20
2022-11-02T21:58:21.917Z,17.20
2022-11-02T22:01:33.163Z,10.00
2022-11-02T22:04:51.188Z,12.40
2022-11-02T22:07:57.163Z,9.00
2022-11-02T22:10:43.155Z,12.00
2022-11-02T22:13:35.590Z,12.30
2022-11-02T22:16:25.457Z,12.00
2022-11-02T22:19:15.640Z,10.30
2022-11-02T22:22:02.675Z,10.30
2022-11-02T22:24:49.450Z,11.30
2022-11-02T22:27:35.585Z,11.10
2022-11-02T22:30:22.509Z,10.30
2022-11-02T22:33:11.730Z,10.60
2022-11-02T22:35:57.675Z,11.10
2022-11-02T22:38:58.219Z,9.60
2022-11-02T22:41:48.860Z,8.60
2022-11-02T22:44:34.952Z,10.70
2022-11-02T22:47:21.012Z,9.50
2022-11-02T22:50:08.190Z,11.70
2022-11-02T22:52:55.775Z,9.00
2022-11-02T22:55:42.677Z,8.50
2022-11-02T22:58:31.004Z,9.20
2022-11-02T23:01:20.271Z,7.10
2022-11-02T23:04:07.261Z,5.80
2022-11-02T23:06:53.300Z,6.20
2022-11-02T23:09:40.400Z,6.20
2022-11-02T23:12:26.192Z,6.80
2022-11-02T23:15:12.723Z,5.10
2022-11-02T23:17:59.546Z,7.30
2022-11-02T23:20:52.793Z,5.40
2022-11-02T23:23:57.785Z,4.70
2022-11-02T23:26:46.744Z,5.50
2022-11-02T23:29:52.760Z,4.60
2022-11-02T23:32:40.161Z,4.20
2022-11-02T23:35:45.191Z,5.80
2022-11-02T23:38:51.779Z,4.20
2022-11-02T23:41:39.381Z,4.50
2022-11-02T23:44:30.403Z,6.80
2022-11-02T23:47:17.846Z,4.80
2022-11-02T23:50:04.887Z,5.20
2022-11-02T23:53:10.467Z,4.30
2022-11-02T23:56:16.173Z,5.00
2022-11-02T23:59:09.619Z,6.00
